sensor_id;sensor_type;location;lat;lon;timestamp;temperature;humidity
16838;DHT22;19510;54.486;9.046;2022-11-25T07:09:35;6.50;99.90
16838;DHT22;19510;54.486;9.046;2022-11-25T07:12:01;6.50;99.90
16838;DHT22;19510;54.486;9.046;2022-11-25T07:14:27;6.50;99.90
16838;DHT22;19510;54.486;9.046;2022-11-25T07:16:53;6.50;99.90
16838;DHT22;19510;54.486;9.046;2022-11-25T07:19:18;6.50;99.90
16838;DHT22;19510;54.486;9.046;2022-11-25T07:21:45;6.50;99.90
16838;DHT22;19510;54.486;9.046;2022-11-25T07:24:14;6.50;99.90
16838;DHT22;19510;54.486;9.046;2022-11-25T07:26:41;6.50;99.90
16838;DHT22;19510;54.486;9.046;2022-11-25T07:29:10;6.50;99.90
16838;DHT22;19510;54.486;9.046;2022-11-25T07:31:39;6.60;99.90
16838;DHT22;19510;54.486;9.046;2022-11-25T07:34:16;6.50;99.90
16838;DHT22;19510;54.486;9.046;2022-11-25T07:36:42;6.60;99.90
16838;DHT22;19510;54.486;9.046;2022-11-25T07:39:16;6.60;99.90
16838;DHT22;19510;54.486;9.046;2022-11-25T07:41:43;6.60;99.90
16838;DHT22;19510;54.486;9.046;2022-11-25T07:44:12;6.60;99.90
16838;DHT22;19510;54.486;9.046;2022-11-25T07:46:46;6.70;99.90
16838;DHT22;19510;54.486;9.046;2022-11-25T07:49:22;6.60;99.90
16838;DHT22;19510;54.486;9.046;2022-11-25T07:51:53;6.70;99.90
16838;DHT22;19510;54.486;9.046;2022-11-25T07:54:24;6.70;99.90
16838;DHT22;19510;54.486;9.046;2022-11-25T07:56:51;6.70;99.90
16838;DHT22;19510;54.486;9.046;2022-11-25T07:59:19;6.70;99.90
16838;DHT22;19510;54.486;9.046;2022-11-25T08:01:50;6.70;99.90
16838;DHT22;19510;54.486;9.046;2022-11-25T08:04:18;6.70;99.90
16838;DHT22;19510;54.486;9.046;2022-11-25T08:06:45;6.80;99.90
16838;DHT22;19510;54.486;9.046;2022-11-25T08:09:13;6.80;99.90
16838;DHT22;19510;54.486;9.046;2022-11-25T08:11:42;6.70;99.90
16838;DHT22;19510;54.486;9.046;2022-11-25T08:14:08;6.80;99.90
16838;DHT22;19510;54.486;9.046;2022-11-25T08:16:37;6.80;99.90
16838;DHT22;19510;54.486;9.046;2022-11-25T08:19:05;6.80;99.90
16838;DHT22;19510;54.486;9.046;2022-11-25T08:21:31;6.80;99.90
16838;DHT22;19510;54.486;9.046;2022-11-25T08:23:57;6.90;99.90
16838;DHT22;19510;54.486;9.046;2022-11-25T08:26:32;6.90;99.90
16838;DHT22;19510;54.486;9.046;2022-11-25T08:29:01;6.90;99.90
16838;DHT22;19510;54.486;9.046;2022-11-25T08:31:30;6.90;99.90
16838;DHT22;19510;54.486;9.046;2022-11-25T08:33:56;6.90;99.90
16838;DHT22;19510;54.486;9.046;2022-11-25T08:36:23;6.80;99.90
16838;DHT22;19510;54.486;9.046;2022-11-25T08:38:52;6.80;99.90
16838;DHT22;19510;54.486;9.046;2022-11-25T08:43:51;6.90;99.90
16838;DHT22;19510;54.486;9.046;2022-11-25T08:46:21;6.90;99.90
16838;DHT22;19510;54.486;9.046;2022-11-25T08:48:47;6.90;99.90
16838;DHT22;19510;54.486;9.046;2022-11-25T08:51:17;6.90;99.90
16838;DHT22;19510;54.486;9.046;2022-11-25T08:53:44;6.90;99.90
16838;DHT22;19510;54.486;9.046;2022-11-25T08:56:11;7.00;99.90
16838;DHT22;19510;54.486;9.046;2022-11-25T08:58:37;7.00;99.90
16838;DHT22;19510;54.486;9.046;2022-11-25T09:01:04;7.00;99.90
16838;DHT22;19510;54.486;9.046;2022-11-25T09:03:40;7.00;99.90
16838;DHT22;19510;54.486;9.046;2022-11-25T09:06:07;7.00;99.90
16838;DHT22;19510;54.486;9.046;2022-11-25T09:08:34;7.00;99.90
16838;DHT22;19510;54.486;9.046;2022-11-25T09:11:02;7.00;99.90
16838;DHT22;19510;54.486;9.046;2022-11-25T09:13:28;7.10;99.90
16838;DHT22;19510;54.486;9.046;2022-11-25T09:15:56;7.10;99.90
16838;DHT22;19510;54.486;9.046;2022-11-25T09:18:30;7.10;99.90
16838;DHT22;19510;54.486;9.046;2022-11-25T09:21:07;7.00;99.90
16838;DHT22;19510;54.486;9.046;2022-11-25T09:23:33;7.10;99.90
16838;DHT22;19510;54.486;9.046;2022-11-25T09:25:59;7.10;99.90
16838;DHT22;19510;54.486;9.046;2022-11-25T09:28:27;7.10;99.90
16838;DHT22;19510;54.486;9.046;2022-11-25T09:30:53;7.10;99.90
16838;DHT22;19510;54.486;9.046;2022-11-25T09:33:19;7.10;99.90
16838;DHT22;19510;54.486;9.046;2022-11-25T09:35:46;7.10;99.90
16838;DHT22;19510;54.486;9.046;2022-11-25T09:38:15;7.10;99.90
16838;DHT22;19510;54.486;9.046;2022-11-25T09:41:02;7.10;99.90
16838;DHT22;19510;54.486;9.046;2022-11-25T09:43:54;7.10;99.90
16838;DHT22;19510;54.486;9.046;2022-11-25T09:46:59;7.20;99.90
16838;DHT22;19510;54.486;9.046;2022-11-25T09:49:39;7.20;99.90
16838;DHT22;19510;54.486;9.046;2022-11-25T09:54:48;7.20;99.90
16838;DHT22;19510;54.486;9.046;2022-11-25T10:02:38;7.20;99.90
16838;DHT22;19510;54.486;9.046;2022-11-25T10:05:15;7.20;99.90
16838;DHT22;19510;54.486;9.046;2022-11-25T10:07:50;7.20;99.90
16838;DHT22;19510;54.486;9.046;2022-11-25T10:10:26;7.30;99.90
16838;DHT22;19510;54.486;9.046;2022-11-25T10:12:56;7.30;99.90
16838;DHT22;19510;54.486;9.046;2022-11-25T10:17:54;7.20;99.90
16838;DHT22;19510;54.486;9.046;2022-11-25T10:20:29;7.30;99.90
16838;DHT22;19510;54.486;9.046;2022-11-25T10:23:01;7.30;99.90
16838;DHT22;19510;54.486;9.046;2022-11-25T10:25:30;7.30;99.90
16838;DHT22;19510;54.486;9.046;2022-11-25T10:28:20;7.30;99.90
16838;DHT22;19510;54.486;9.046;2022-11-25T10:39:21;7.40;99.90
16838;DHT22;19510;54.486;9.046;2022-11-25T10:42:03;7.40;99.90
16838;DHT22;19510;54.486;9.046;2022-11-25T10:44:35;7.40;99.90
16838;DHT22;19510;54.486;9.046;2022-11-25T10:52:29;7.50;99.90
16838;DHT22;19510;54.486;9.046;2022-11-25T10:55:09;7.50;99.90
16838;DHT22;19510;54.486;9.046;2022-11-25T10:57:35;7.50;99.90
16838;DHT22;19510;54.486;9.046;2022-11-25T11:00:07;7.50;99.90
16838;DHT22;19510;54.486;9.046;2022-11-25T11:02:50;7.50;99.90
16838;DHT22;19510;54.486;9.046;2022-11-25T11:05:28;7.60;99.90
16838;DHT22;19510;54.486;9.046;2022-11-25T11:10:42;7.60;99.90
16838;DHT22;19510;54.486;9.046;2022-11-25T11:15:46;7.60;99.90
16838;DHT22;19510;54.486;9.046;2022-11-25T11:21:01;7.70;99.90
16838;DHT22;19510;54.486;9.046;2022-11-25T11:23:29;7.70;99.90
16838;DHT22;19510;54.486;9.046;2022-11-25T11:33:34;7.70;99.90
16838;DHT22;19510;54.486;9.046;2022-11-25T11:36:09;7.70;99.90
16838;DHT22;19510;54.486;9.046;2022-11-25T11:41:29;7.70;99.90
16838;DHT22;19510;54.486;9.046;2022-11-25T11:47:05;7.80;99.90
16838;DHT22;19510;54.486;9.046;2022-11-25T11:50:07;7.80;99.90
16838;DHT22;19510;54.486;9.046;2022-11-25T11:55:38;7.80;99.90
16838;DHT22;19510;54.486;9.046;2022-11-25T11:58:04;7.80;99.90
16838;DHT22;19510;54.486;9.046;2022-11-25T12:00:48;7.90;99.90
16838;DHT22;19510;54.486;9.046;2022-11-25T12:03:23;7.90;99.90
16838;DHT22;19510;54.486;9.046;2022-11-25T12:05:50;7.80;99.90
16838;DHT22;19510;54.486;9.046;2022-11-25T12:10:57;7.90;99.90
16838;DHT22;19510;54.486;9.046;2022-11-25T12:13:51;7.90;99.90
16838;DHT22;19510;54.486;9.046;2022-11-25T12:22:50;7.90;99.90
16838;DHT22;19510;54.486;9.046;2022-11-25T12:25:36;8.00;99.90
16838;DHT22;19510;54.486;9.046;2022-11-25T12:28:09;8.00;99.90
16838;DHT22;19510;54.486;9.046;2022-11-25T12:33:35;8.00;99.90
16838;DHT22;19510;54.486;9.046;2022-11-25T12:38:46;8.00;99.90
16838;DHT22;19510;54.486;9.046;2022-11-25T12:44:15;8.10;99.90
16838;DHT22;19510;54.486;9.046;2022-11-25T12:46:50;8.10;99.90
16838;DHT22;19510;54.486;9.046;2022-11-25T12:49:21;8.10;99.90
16838;DHT22;19510;54.486;9.046;2022-11-25T13:00:23;8.10;99.90
16838;DHT22;19510;54.486;9.046;2022-11-25T13:08:54;8.20;99.90
16838;DHT22;19510;54.486;9.046;2022-11-25T13:16:49;8.40;99.90
16838;DHT22;19510;54.486;9.046;2022-11-25T13:19:19;8.40;99.90
16838;DHT22;19510;54.486;9.046;2022-11-25T13:22:00;8.40;99.90
16838;DHT22;19510;54.486;9.046;2022-11-25T13:26:59;8.40;99.90
16838;DHT22;19510;54.486;9.046;2022-11-25T13:31:59;8.40;99.90
16838;DHT22;19510;54.486;9.046;2022-11-25T13:34:33;8.50;99.90
16838;DHT22;19510;54.486;9.046;2022-11-25T13:37:01;8.50;99.90
16838;DHT22;19510;54.486;9.046;2022-11-25T13:39:35;8.50;99.90
16838;DHT22;19510;54.486;9.046;2022-11-25T13:42:21;8.50;99.90
16838;DHT22;19510;54.486;9.046;2022-11-25T13:44:58;8.50;99.90
16838;DHT22;19510;54.486;9.046;2022-11-25T13:47:32;8.50;99.90
16838;DHT22;19510;54.486;9.046;2022-11-25T13:50:17;8.60;99.90
16838;DHT22;19510;54.486;9.046;2022-11-25T13:52:59;8.60;99.90
16838;DHT22;19510;54.486;9.046;2022-11-25T13:55:39;8.60;99.90
16838;DHT22;19510;54.486;9.046;2022-11-25T14:03:44;8.60;99.90
16838;DHT22;19510;54.486;9.046;2022-11-25T14:08:53;8.70;99.90
16838;DHT22;19510;54.486;9.046;2022-11-25T14:12:27;8.60;99.90
16838;DHT22;19510;54.486;9.046;2022-11-25T14:20:25;8.60;99.90
16838;DHT22;19510;54.486;9.046;2022-11-25T14:25:32;8.60;99.90
16838;DHT22;19510;54.486;9.046;2022-11-25T14:30:50;8.60;99.90
16838;DHT22;19510;54.486;9.046;2022-11-25T14:33:19;8.60;99.90
16838;DHT22;19510;54.486;9.046;2022-11-25T14:35:52;8.60;99.90
16838;DHT22;19510;54.486;9.046;2022-11-25T14:38:28;8.60;99.90
16838;DHT22;19510;54.486;9.046;2022-11-25T14:41:03;8.70;99.90
16838;DHT22;19510;54.486;9.046;2022-11-25T14:43:40;8.70;99.90
16838;DHT22;19510;54.486;9.046;2022-11-25T14:46:16;8.70;99.90
16838;DHT22;19510;54.486;9.046;2022-11-25T14:48:55;8.70;99.90
16838;DHT22;19510;54.486;9.046;2022-11-25T14:51:21;8.70;99.90
16838;DHT22;19510;54.486;9.046;2022-11-25T14:53:49;8.70;99.90
16838;DHT22;19510;54.486;9.046;2022-11-25T14:56:28;8.70;99.90
16838;DHT22;19510;54.486;9.046;2022-11-25T14:58:55;8.70;99.90
16838;DHT22;19510;54.486;9.046;2022-11-25T15:01:24;8.70;99.90
16838;DHT22;19510;54.486;9.046;2022-11-25T15:03:59;8.70;99.90
16838;DHT22;19510;54.486;9.046;2022-11-25T15:06:35;8.70;99.90
16838;DHT22;19510;54.486;9.046;2022-11-25T15:09:01;8.70;99.90
16838;DHT22;19510;54.486;9.046;2022-11-25T15:11:30;8.70;99.90
16838;DHT22;19510;54.486;9.046;2022-11-25T15:14:02;8.70;99.90
16838;DHT22;19510;54.486;9.046;2022-11-25T15:16:39;8.70;99.90
16838;DHT22;19510;54.486;9.046;2022-11-25T15:19:17;8.70;99.90
16838;DHT22;19510;54.486;9.046;2022-11-25T15:21:44;8.70;99.90
16838;DHT22;19510;54.486;9.046;2022-11-25T15:24:28;8.70;99.90
16838;DHT22;19510;54.486;9.046;2022-11-25T15:26:56;8.70;99.90
16838;DHT22;19510;54.486;9.046;2022-11-25T15:29:23;8.70;99.90
16838;DHT22;19510;54.486;9.046;2022-11-25T15:31:50;8.70;99.90
16838;DHT22;19510;54.486;9.046;2022-11-25T15:34:18;8.70;99.90
16838;DHT22;19510;54.486;9.046;2022-11-25T15:36:45;8.70;99.90
16838;DHT22;19510;54.486;9.046;2022-11-25T15:46:50;8.70;99.90
16838;DHT22;19510;54.486;9.046;2022-11-25T15:49:18;8.70;99.90
16838;DHT22;19510;54.486;9.046;2022-11-25T15:51:50;8.70;99.90
16838;DHT22;19510;54.486;9.046;2022-11-25T15:54:50;8.80;99.90
16838;DHT22;19510;54.486;9.046;2022-11-25T16:18:23;8.70;99.90
16838;DHT22;19510;54.486;9.046;2022-11-25T16:20:55;8.80;99.90
16838;DHT22;19510;54.486;9.046;2022-11-25T16:23:23;8.80;99.90
16838;DHT22;19510;54.486;9.046;2022-11-25T16:25:56;8.70;99.90
16838;DHT22;19510;54.486;9.046;2022-11-25T16:28:22;8.80;99.90
16838;DHT22;19510;54.486;9.046;2022-11-25T16:30:49;8.70;99.90
16838;DHT22;19510;54.486;9.046;2022-11-25T16:33:16;8.70;99.90
16838;DHT22;19510;54.486;9.046;2022-11-25T16:35:42;8.80;99.90
16838;DHT22;19510;54.486;9.046;2022-11-25T16:38:10;8.70;99.90
16838;DHT22;19510;54.486;9.046;2022-11-25T16:40:37;8.70;99.90
16838;DHT22;19510;54.486;9.046;2022-11-25T16:43:21;8.70;99.90
16838;DHT22;19510;54.486;9.046;2022-11-25T16:45:49;8.70;99.90
16838;DHT22;19510;54.486;9.046;2022-11-25T16:48:18;8.70;99.90
16838;DHT22;19510;54.486;9.046;2022-11-25T16:50:44;8.70;99.90
16838;DHT22;19510;54.486;9.046;2022-11-25T16:53:10;8.80;99.90
16838;DHT22;19510;54.486;9.046;2022-11-25T16:55:38;8.80;99.90
16838;DHT22;19510;54.486;9.046;2022-11-25T16:58:12;8.70;99.90
16838;DHT22;19510;54.486;9.046;2022-11-25T17:00:46;8.80;99.90
16838;DHT22;19510;54.486;9.046;2022-11-25T17:03:14;8.80;99.90
16838;DHT22;19510;54.486;9.046;2022-11-25T17:05:39;8.70;99.90
16838;DHT22;19510;54.486;9.046;2022-11-25T17:08:05;8.80;99.90
16838;DHT22;19510;54.486;9.046;2022-11-25T17:10:31;8.80;99.90
16838;DHT22;19510;54.486;9.046;2022-11-25T17:12:57;8.80;99.90
16838;DHT22;19510;54.486;9.046;2022-11-25T17:15:32;8.80;99.90
16838;DHT22;19510;54.486;9.046;2022-11-25T17:18:00;8.80;99.90
16838;DHT22;19510;54.486;9.046;2022-11-25T17:20:26;8.80;99.90
16838;DHT22;19510;54.486;9.046;2022-11-25T17:22:53;8.80;99.90
16838;DHT22;19510;54.486;9.046;2022-11-25T17:25:19;8.80;99.90
16838;DHT22;19510;54.486;9.046;2022-11-25T17:27:49;8.80;99.90
16838;DHT22;19510;54.486;9.046;2022-11-25T17:30:25;8.80;99.90
16838;DHT22;19510;54.486;9.046;2022-11-25T17:33:05;8.80;99.90
16838;DHT22;19510;54.486;9.046;2022-11-25T17:35:31;8.90;99.90
16838;DHT22;19510;54.486;9.046;2022-11-25T17:37:58;8.90;99.90
16838;DHT22;19510;54.486;9.046;2022-11-25T17:40:24;8.90;99.90
16838;DHT22;19510;54.486;9.046;2022-11-25T17:42:53;8.80;99.90
16838;DHT22;19510;54.486;9.046;2022-11-25T17:45:20;8.80;99.90
16838;DHT22;19510;54.486;9.046;2022-11-25T17:47:48;8.90;99.90
16838;DHT22;19510;54.486;9.046;2022-11-25T17:50:20;8.90;99.90
16838;DHT22;19510;54.486;9.046;2022-11-25T17:52:47;8.90;99.90
16838;DHT22;19510;54.486;9.046;2022-11-25T17:55:13;8.90;99.90
16838;DHT22;19510;54.486;9.046;2022-11-25T17:57:44;8.90;99.90
16838;DHT22;19510;54.486;9.046;2022-11-25T18:00:15;8.90;99.90
16838;DHT22;19510;54.486;9.046;2022-11-25T18:02:41;8.90;99.90
16838;DHT22;19510;54.486;9.046;2022-11-25T18:05:16;9.00;99.90
16838;DHT22;19510;54.486;9.046;2022-11-25T18:07:42;8.90;99.90
16838;DHT22;19510;54.486;9.046;2022-11-25T18:10:19;9.00;99.90
16838;DHT22;19510;54.486;9.046;2022-11-25T18:12:46;9.00;99.90
16838;DHT22;19510;54.486;9.046;2022-11-25T18:15:17;9.00;99.90
16838;DHT22;19510;54.486;9.046;2022-11-25T18:17:46;9.00;99.90
16838;DHT22;19510;54.486;9.046;2022-11-25T18:22:40;9.10;99.90
16838;DHT22;19510;54.486;9.046;2022-11-25T18:25:07;9.00;99.90
16838;DHT22;19510;54.486;9.046;2022-11-25T18:27:33;9.10;99.90
16838;DHT22;19510;54.486;9.046;2022-11-25T18:30:02;9.00;99.90
16838;DHT22;19510;54.486;9.046;2022-11-25T18:32:30;9.10;99.90
16838;DHT22;19510;54.486;9.046;2022-11-25T18:34:56;9.10;99.90
16838;DHT22;19510;54.486;9.046;2022-11-25T18:37:22;9.10;99.90
16838;DHT22;19510;54.486;9.046;2022-11-25T18:39:48;9.10;99.90
16838;DHT22;19510;54.486;9.046;2022-11-25T18:42:25;9.10;99.90
16838;DHT22;19510;54.486;9.046;2022-11-25T18:44:54;9.10;99.90
16838;DHT22;19510;54.486;9.046;2022-11-25T18:47:20;9.10;99.90
16838;DHT22;19510;54.486;9.046;2022-11-25T18:49:46;9.10;99.90
16838;DHT22;19510;54.486;9.046;2022-11-25T18:52:12;9.10;99.90
16838;DHT22;19510;54.486;9.046;2022-11-25T18:54:38;9.10;99.90
16838;DHT22;19510;54.486;9.046;2022-11-25T18:57:03;9.20;99.90
16838;DHT22;19510;54.486;9.046;2022-11-25T18:59:33;9.20;99.90
16838;DHT22;19510;54.486;9.046;2022-11-25T19:02:00;9.20;99.90
16838;DHT22;19510;54.486;9.046;2022-11-25T19:04:28;9.20;99.90
16838;DHT22;19510;54.486;9.046;2022-11-25T19:06:55;9.20;99.90
16838;DHT22;19510;54.486;9.046;2022-11-25T19:09:21;9.20;99.90
16838;DHT22;19510;54.486;9.046;2022-11-25T19:11:50;9.20;99.90
16838;DHT22;19510;54.486;9.046;2022-11-25T19:14:33;9.20;99.90
16838;DHT22;19510;54.486;9.046;2022-11-25T19:17:03;9.20;99.90
16838;DHT22;19510;54.486;9.046;2022-11-25T19:19:36;9.20;99.90
16838;DHT22;19510;54.486;9.046;2022-11-25T19:22:13;9.10;99.90
16838;DHT22;19510;54.486;9.046;2022-11-25T19:24:43;9.10;99.90
16838;DHT22;19510;54.486;9.046;2022-11-25T19:27:19;9.10;99.90
16838;DHT22;19510;54.486;9.046;2022-11-25T19:29:49;9.10;99.90
16838;DHT22;19510;54.486;9.046;2022-11-25T19:32:28;9.10;99.90
16838;DHT22;19510;54.486;9.046;2022-11-25T19:34:59;9.10;99.90
16838;DHT22;19510;54.486;9.046;2022-11-25T19:37:25;9.10;99.90
16838;DHT22;19510;54.486;9.046;2022-11-25T19:39:54;9.10;99.90
16838;DHT22;19510;54.486;9.046;2022-11-25T19:42:20;9.10;99.90
16838;DHT22;19510;54.486;9.046;2022-11-25T19:44:49;9.10;99.90
16838;DHT22;19510;54.486;9.046;2022-11-25T19:47:19;9.00;99.90
16838;DHT22;19510;54.486;9.046;2022-11-25T19:49:47;9.00;99.90
16838;DHT22;19510;54.486;9.046;2022-11-25T19:52:22;8.90;99.90
16838;DHT22;19510;54.486;9.046;2022-11-25T19:54:52;8.90;99.90
16838;DHT22;19510;54.486;9.046;2022-11-25T19:57:25;8.80;99.90
16838;DHT22;19510;54.486;9.046;2022-11-25T19:59:52;8.80;99.90
16838;DHT22;19510;54.486;9.046;2022-11-25T20:02:22;8.80;99.90
16838;DHT22;19510;54.486;9.046;2022-11-25T20:04:53;8.70;99.90
16838;DHT22;19510;54.486;9.046;2022-11-25T20:07:20;8.60;99.90
16838;DHT22;19510;54.486;9.046;2022-11-25T20:09:47;8.60;99.90
16838;DHT22;19510;54.486;9.046;2022-11-25T20:12:18;8.60;99.90
16838;DHT22;19510;54.486;9.046;2022-11-25T20:14:47;8.50;99.90
16838;DHT22;19510;54.486;9.046;2022-11-25T20:17:31;8.50;99.90
16838;DHT22;19510;54.486;9.046;2022-11-25T20:20:04;8.40;99.90
16838;DHT22;19510;54.486;9.046;2022-11-25T20:22:35;8.40;99.90
16838;DHT22;19510;54.486;9.046;2022-11-25T20:25:03;8.40;99.90
16838;DHT22;19510;54.486;9.046;2022-11-25T20:27:30;8.30;99.90
16838;DHT22;19510;54.486;9.046;2022-11-25T20:29:58;8.30;99.90
16838;DHT22;19510;54.486;9.046;2022-11-25T20:32:28;8.20;99.90
16838;DHT22;19510;54.486;9.046;2022-11-25T20:34:58;8.20;99.90
16838;DHT22;19510;54.486;9.046;2022-11-25T20:37:28;8.20;99.90
16838;DHT22;19510;54.486;9.046;2022-11-25T20:39:56;8.20;99.90
16838;DHT22;19510;54.486;9.046;2022-11-25T20:42:23;8.10;99.90
16838;DHT22;19510;54.486;9.046;2022-11-25T20:44:49;8.10;99.90
16838;DHT22;19510;54.486;9.046;2022-11-25T20:47:19;8.00;99.90
16838;DHT22;19510;54.486;9.046;2022-11-25T20:49:46;8.00;99.90
16838;DHT22;19510;54.486;9.046;2022-11-25T20:52:26;8.00;99.90
16838;DHT22;19510;54.486;9.046;2022-11-25T20:54:54;7.90;99.90
16838;DHT22;19510;54.486;9.046;2022-11-25T20:57:20;7.90;99.90
16838;DHT22;19510;54.486;9.046;2022-11-25T20:59:45;7.90;99.90
16838;DHT22;19510;54.486;9.046;2022-11-25T21:02:11;7.80;99.90
16838;DHT22;19510;54.486;9.046;2022-11-25T21:04:37;7.80;99.90
16838;DHT22;19510;54.486;9.046;2022-11-25T21:07:03;7.80;99.90
16838;DHT22;19510;54.486;9.046;2022-11-25T21:09:32;7.80;99.90
16838;DHT22;19510;54.486;9.046;2022-11-25T21:11:59;7.70;99.90
16838;DHT22;19510;54.486;9.046;2022-11-25T21:14:25;7.70;99.90
16838;DHT22;19510;54.486;9.046;2022-11-25T21:16:51;7.60;99.90
16838;DHT22;19510;54.486;9.046;2022-11-25T21:19:16;7.60;99.90
16838;DHT22;19510;54.486;9.046;2022-11-25T21:21:45;7.60;99.90
16838;DHT22;19510;54.486;9.046;2022-11-25T21:26:40;7.50;99.90
16838;DHT22;19510;54.486;9.046;2022-11-25T21:29:05;7.40;99.90
16838;DHT22;19510;54.486;9.046;2022-11-25T21:31:31;7.40;99.90
16838;DHT22;19510;54.486;9.046;2022-11-25T21:33:57;7.40;99.90
16838;DHT22;19510;54.486;9.046;2022-11-25T21:36:28;7.30;99.90
16838;DHT22;19510;54.486;9.046;2022-11-25T21:39:04;7.20;99.90
16838;DHT22;19510;54.486;9.046;2022-11-25T21:41:30;7.20;99.90
16838;DHT22;19510;54.486;9.046;2022-11-25T21:43:56;7.10;99.90
16838;DHT22;19510;54.486;9.046;2022-11-25T21:46:22;7.20;99.90
16838;DHT22;19510;54.486;9.046;2022-11-25T21:48:52;7.20;99.90
16838;DHT22;19510;54.486;9.046;2022-11-25T21:51:18;7.20;99.90
16838;DHT22;19510;54.486;9.046;2022-11-25T21:53:50;7.20;99.90
16838;DHT22;19510;54.486;9.046;2022-11-25T21:56:23;7.20;99.90
16838;DHT22;19510;54.486;9.046;2022-11-25T21:58:49;7.20;99.90
16838;DHT22;19510;54.486;9.046;2022-11-25T22:01:15;7.20;99.90
16838;DHT22;19510;54.486;9.046;2022-11-25T22:03:41;7.20;99.90
16838;DHT22;19510;54.486;9.046;2022-11-25T22:06:24;7.10;99.90
16838;DHT22;19510;54.486;9.046;2022-11-25T22:08:50;7.10;99.90
16838;DHT22;19510;54.486;9.046;2022-11-25T22:11:20;7.10;99.90
16838;DHT22;19510;54.486;9.046;2022-11-25T22:13:47;7.10;99.90
16838;DHT22;19510;54.486;9.046;2022-11-25T22:16:20;7.10;99.90
16838;DHT22;19510;54.486;9.046;2022-11-25T22:18:51;7.10;99.90
16838;DHT22;19510;54.486;9.046;2022-11-25T22:21:16;7.00;99.90
16838;DHT22;19510;54.486;9.046;2022-11-25T22:23:42;7.00;99.90
16838;DHT22;19510;54.486;9.046;2022-11-25T22:28:54;6.90;99.90
16838;DHT22;19510;54.486;9.046;2022-11-25T22:31:21;6.90;99.90
16838;DHT22;19510;54.486;9.046;2022-11-25T22:33:48;6.90;99.90
16838;DHT22;19510;54.486;9.046;2022-11-25T22:36:35;6.80;99.90
16838;DHT22;19510;54.486;9.046;2022-11-25T22:41:54;6.80;99.90
16838;DHT22;19510;54.486;9.046;2022-11-25T22:46:56;6.80;99.90
16838;DHT22;19510;54.486;9.046;2022-11-25T22:49:27;6.80;99.90
16838;DHT22;19510;54.486;9.046;2022-11-25T22:51:53;6.80;99.90
16838;DHT22;19510;54.486;9.046;2022-11-25T22:54:21;6.80;99.90
16838;DHT22;19510;54.486;9.046;2022-11-25T22:56:47;6.80;99.90
16838;DHT22;19510;54.486;9.046;2022-11-25T22:59:12;6.80;99.90
16838;DHT22;19510;54.486;9.046;2022-11-25T23:01:38;6.80;99.90
16838;DHT22;19510;54.486;9.046;2022-11-25T23:04:04;6.80;99.90
